Time;durP1;ratioP1;P1;durP2;ratioP2;P2;SDS_P1;SDS_P2;PMS_P1;PMS_P2;Temp;Humidity;BMP_temperature;BMP_pressure;BME280_temperature;BME280_humidity;BME280_pressure;Samples;Min_cycle;Max_cycle;Signal;HPM_P1;HPM_P2
2022/12/17 13:07:00;;;;;;;107.20;48.70;;;;;;;-3.19;84.17;99414.27;2170871;82;21442;-84
2022/12/17 13:10:01;;;;;;;107.20;48.13;;;;;;;-3.25;84.33;99421.09;2171103;81;20978;-84
2022/12/17 13:13:00;;;;;;;110.20;48.80;;;;;;;-3.34;84.50;99426.40;2171080;81;20996;-84
2022/12/17 13:16:01;;;;;;;116.50;49.43;;;;;;;-3.41;85.45;99442.03;2171393;81;21376;-84
2022/12/17 13:19:01;;;;;;;113.67;48.40;;;;;;;-3.43;85.46;99442.69;2170631;81;21003;-84
2022/12/17 13:22:01;;;;;;;114.43;50.37;;;;;;;-3.44;85.28;99448.56;2170890;81;20944;-83
2022/12/17 13:25:02;;;;;;;112.17;49.33;;;;;;;-3.43;85.31;99452.89;2170693;82;21107;-84
2022/12/17 13:28:02;;;;;;;112.20;47.77;;;;;;;-3.40;85.20;99462.95;2171300;81;20969;-85
2022/12/17 13:31:03;;;;;;;113.00;49.97;;;;;;;-3.41;85.50;99463.73;2171195;81;20960;-83
2022/12/17 13:34:03;;;;;;;125.40;54.10;;;;;;;-3.34;85.85;99460.86;2171750;81;20973;-85
2022/12/17 13:37:03;;;;;;;125.53;51.30;;;;;;;-3.27;85.76;99459.27;2172193;81;21424;-85
2022/12/17 13:40:04;;;;;;;114.77;48.93;;;;;;;-3.28;85.41;99460.05;2173015;81;20976;-84
2022/12/17 13:43:04;;;;;;;119.27;49.13;;;;;;;-3.34;85.13;99468.91;2173446;81;20945;-83
2022/12/17 13:46:05;;;;;;;110.17;50.20;;;;;;;-3.45;85.42;99464.66;2173671;81;21400;-84
2022/12/17 13:49:07;;;;;;;114.90;47.67;;;;;;;-3.49;86.04;99466.44;2173603;81;20917;-85
2022/12/17 13:52:08;;;;;;;142.33;57.00;;;;;;;-3.52;86.19;99469.64;2173570;81;20934;-85
2022/12/17 13:55:08;;;;;;;122.37;51.60;;;;;;;-3.53;86.39;99472.58;2173491;81;21436;-85
2022/12/17 13:58:09;;;;;;;124.07;51.77;;;;;;;-3.37;87.97;99471.23;2172537;81;21012;-84
2022/12/17 14:01:09;;;;;;;125.60;50.50;;;;;;;-3.50;86.58;99484.69;2172248;82;20925;-83
2022/12/17 14:04:09;;;;;;;121.43;47.50;;;;;;;-3.64;86.76;99483.63;2172712;82;21012;-83
2022/12/17 14:07:10;;;;;;;129.07;52.53;;;;;;;-3.78;86.93;99495.70;2173310;81;21008;-83
2022/12/17 14:10:10;;;;;;;133.00;53.67;;;;;;;-3.83;87.47;99499.95;2173906;81;20953;-83
2022/12/17 14:13:11;;;;;;;133.23;53.23;;;;;;;-3.87;87.65;99502.25;2170290;81;20949;-84
2022/12/17 14:16:11;;;;;;;133.33;55.87;;;;;;;-3.88;87.75;99505.96;2171603;81;20924;-84
2022/12/17 14:19:11;;;;;;;143.13;56.97;;;;;;;-3.93;87.98;99509.81;2171386;81;21045;-84
2022/12/17 14:22:30;;;;;;;138.97;57.93;;;;;;;-3.97;88.40;99511.62;2171535;81;20993;-84
2022/12/17 14:25:31;;;;;;;138.83;58.07;;;;;;;-4.00;88.77;99507.55;2172405;81;21051;-83
2022/12/17 14:28:31;;;;;;;140.83;56.47;;;;;;;-4.01;88.84;99510.48;2173062;81;20929;-84
2022/12/17 14:31:31;;;;;;;138.10;54.47;;;;;;;-4.04;88.97;99518.28;2173275;81;21273;-84
2022/12/17 14:34:32;;;;;;;134.30;54.70;;;;;;;-4.06;89.96;99528.36;2173677;81;20933;-85
2022/12/17 14:37:32;;;;;;;129.60;55.77;;;;;;;-4.06;90.34;99535.12;2172303;81;20937;-82
2022/12/17 14:40:33;;;;;;;144.83;58.53;;;;;;;-4.04;90.37;99539.56;2173082;82;20928;-85
2022/12/17 14:43:45;;;;;;;138.83;55.30;;;;;;;-4.03;90.03;99541.34;2172295;81;21309;-84
2022/12/17 14:46:46;;;;;;;137.47;55.20;;;;;;;-4.06;89.12;99551.30;2172515;81;20997;-83
2022/12/17 14:49:46;;;;;;;137.47;56.07;;;;;;;-4.12;88.73;99555.02;2170907;81;20899;-83
2022/12/17 14:52:47;;;;;;;156.03;63.97;;;;;;;-4.21;88.77;99557.73;2171053;81;20925;-83
2022/12/17 14:55:47;;;;;;;156.40;67.60;;;;;;;-4.30;89.10;99560.81;2172761;81;21008;-84
2022/12/17 14:58:47;;;;;;;163.93;72.10;;;;;;;-4.35;89.23;99568.44;2173267;81;20997;-83
2022/12/17 15:01:48;;;;;;;152.57;62.40;;;;;;;-4.35;89.48;99577.36;2172842;81;20937;-82
2022/12/17 15:04:48;;;;;;;148.87;59.17;;;;;;;-4.37;89.79;99584.88;2173548;81;20965;-83
2022/12/17 15:07:50;;;;;;;128.70;53.30;;;;;;;-4.40;89.81;99593.55;2173592;81;20937;-83
2022/12/17 15:10:49;;;;;;;136.33;53.97;;;;;;;-4.40;89.47;99593.94;2173415;81;20937;-83
2022/12/17 15:13:49;;;;;;;129.50;52.13;;;;;;;-4.45;89.13;99607.57;2173645;81;20965;-83
2022/12/17 15:16:50;;;;;;;129.70;48.80;;;;;;;-4.52;89.08;99610.38;2173513;81;20921;-82
2022/12/17 15:19:50;;;;;;;129.27;51.53;;;;;;;-4.57;89.08;99605.29;2173543;81;20948;-83
2022/12/17 15:22:51;;;;;;;144.20;54.50;;;;;;;-4.62;89.20;99604.91;2173736;81;20995;-84
2022/12/17 15:25:51;;;;;;;132.73;52.37;;;;;;;-4.63;89.34;99608.22;2173220;81;20981;-84
2022/12/17 15:28:51;;;;;;;133.67;55.73;;;;;;;-4.64;89.50;99615.73;2173607;81;21360;-84
2022/12/17 15:31:52;;;;;;;131.97;52.23;;;;;;;-4.64;89.61;99611.92;2172762;81;20945;-83
2022/12/17 15:34:52;;;;;;;136.33;52.50;;;;;;;-4.62;89.60;99616.75;2172888;81;20914;-83
2022/12/17 15:37:53;;;;;;;120.57;47.00;;;;;;;-4.59;89.82;99623.00;2172804;81;21416;-83
2022/12/17 15:40:53;;;;;;;130.43;50.83;;;;;;;-4.60;89.71;99626.31;2173870;81;20937;-84
2022/12/17 15:43:53;;;;;;;116.40;46.57;;;;;;;-4.56;89.76;99628.73;2173284;81;20973;-82
2022/12/17 15:46:54;;;;;;;120.20;49.80;;;;;;;-4.54;89.77;99625.92;2173563;81;20969;-82
2022/12/17 15:49:54;;;;;;;142.87;56.00;;;;;;;-4.51;89.81;99637.64;2171672;81;21027;-85
2022/12/17 15:52:55;;;;;;;150.30;59.07;;;;;;;-4.45;92.86;99637.26;2171738;82;20909;-83
2022/12/17 15:55:55;;;;;;;148.83;58.27;;;;;;;-4.08;91.98;99640.81;2174645;81;21052;-82
2022/12/17 15:58:55;;;;;;;141.70;57.07;;;;;;;-4.28;89.87;99649.77;2169779;81;21377;-83
2022/12/17 16:01:56;;;;;;;140.60;57.10;;;;;;;-4.46;89.96;99649.49;2169421;81;20957;-84
2022/12/17 16:04:56;;;;;;;128.87;50.20;;;;;;;-4.56;90.09;99660.58;2170884;81;20992;-84
2022/12/17 16:08:01;;;;;;;140.43;53.83;;;;;;;-4.65;90.43;99663.25;2171092;81;20960;-83
2022/12/17 16:10:59;;;;;;;158.03;58.37;;;;;;;-4.75;90.72;99658.15;2171137;81;20933;-82
2022/12/17 16:14:00;;;;;;;154.13;57.17;;;;;;;-4.79;90.99;99669.22;2170838;81;20940;-82
2022/12/17 16:17:00;;;;;;;151.90;58.60;;;;;;;-4.84;91.09;99676.48;2171023;81;20976;-82
2022/12/17 16:20:00;;;;;;;142.50;58.10;;;;;;;-4.87;91.12;99676.22;2171147;81;20957;-83
2022/12/17 16:23:01;;;;;;;160.80;61.07;;;;;;;-4.86;91.31;99682.71;2171089;81;21300;-82
2022/12/17 16:26:01;;;;;;;143.37;55.13;;;;;;;-4.81;91.11;99683.10;2170871;81;20973;-83
2022/12/17 16:29:02;;;;;;;159.97;57.83;;;;;;;-4.78;91.20;99694.83;2171108;81;20925;-81
2022/12/17 16:32:02;;;;;;;155.83;57.83;;;;;;;-4.81;91.18;99692.02;2170638;81;20921;-80
2022/12/17 16:35:03;;;;;;;167.13;60.33;;;;;;;-4.86;91.13;99697.99;2170769;81;20974;-80
2022/12/17 16:38:03;;;;;;;153.43;56.57;;;;;;;-4.92;91.09;99711.48;2170745;81;20926;-81
2022/12/17 16:41:04;;;;;;;146.67;54.30;;;;;;;-4.97;91.21;99710.19;2170138;81;21347;-81
2022/12/17 16:44:04;;;;;;;174.23;62.90;;;;;;;-4.97;91.34;99710.57;2171027;81;20925;-80
2022/12/17 16:47:04;;;;;;;179.67;63.70;;;;;;;-4.62;95.26;99713.19;2171181;81;20984;-80
2022/12/17 16:50:04;;;;;;;161.73;57.60;;;;;;;-4.77;91.73;99715.71;2171117;81;21261;-80
2022/12/17 16:53:05;;;;;;;149.10;52.83;;;;;;;-4.88;91.58;99721.55;2170642;81;20961;-80
2022/12/17 16:56:05;;;;;;;155.57;54.27;;;;;;;-4.96;91.76;99727.63;2170251;81;21008;-80
2022/12/17 16:59:07;;;;;;;165.83;61.27;;;;;;;-5.05;91.83;99729.39;2168678;81;21016;-80
2022/12/17 17:02:06;;;;;;;159.50;57.10;;;;;;;-5.08;92.03;99733.84;2168363;81;21367;-80
2022/12/17 17:05:06;;;;;;;172.63;57.87;;;;;;;-5.08;92.20;99727.47;2169433;81;21063;-81
2022/12/17 17:08:07;;;;;;;162.63;57.77;;;;;;;-5.08;92.30;99729.13;2169764;81;20894;-81
2022/12/17 17:11:07;;;;;;;171.07;57.80;;;;;;;-5.12;92.19;99719.44;2170562;81;20972;-82
2022/12/17 17:14:08;;;;;;;169.73;56.53;;;;;;;-5.16;92.57;99724.27;2169845;81;21076;-83
2022/12/17 17:17:09;;;;;;;178.67;61.30;;;;;;;-5.17;92.58;99721.20;2170030;81;21012;-82
2022/12/17 17:20:09;;;;;;;177.60;61.70;;;;;;;-5.15;92.63;99730.25;2171142;81;20952;-82
2022/12/17 17:23:09;;;;;;;170.47;58.70;;;;;;;-5.12;92.56;99730.89;2169941;81;21418;-81
2022/12/17 17:26:09;;;;;;;166.27;56.33;;;;;;;-5.12;92.51;99733.44;2169605;81;20989;-82
2022/12/17 17:29:10;;;;;;;167.90;57.83;;;;;;;-5.09;92.55;99737.14;2170402;81;20977;-81
2022/12/17 17:32:10;;;;;;;148.00;54.13;;;;;;;-5.08;92.64;99750.38;2169840;81;20980;-80
2022/12/17 17:35:11;;;;;;;156.97;55.20;;;;;;;-5.07;92.43;99756.37;2173095;81;20964;-82
2022/12/17 17:38:11;;;;;;;142.37;50.83;;;;;;;-5.09;92.58;99764.25;2172742;81;21360;-82
2022/12/17 17:41:12;;;;;;;135.80;49.13;;;;;;;-5.16;92.75;99759.90;2172108;81;21014;-82
2022/12/17 17:44:12;;;;;;;160.13;53.57;;;;;;;-5.21;92.72;99766.20;2169996;81;20972;-80
2022/12/17 17:47:12;;;;;;;142.73;52.00;;;;;;;-5.24;92.73;99774.84;2170784;81;20980;-81
2022/12/17 17:50:13;;;;;;;148.33;49.40;;;;;;;-5.26;93.24;99779.29;2170930;81;20929;-82
2022/12/17 17:53:13;;;;;;;148.90;52.17;;;;;;;-5.29;93.37;99781.19;2169735;81;21396;-81
2022/12/17 17:56:14;;;;;;;148.10;55.53;;;;;;;-5.28;93.26;99780.81;2169639;81;21112;-80
2022/12/17 17:59:14;;;;;;;141.47;56.00;;;;;;;-5.24;93.09;99790.50;2169694;81;20961;-81
2022/12/17 18:02:14;;;;;;;148.37;55.27;;;;;;;-5.21;93.21;99787.84;2171044;81;20968;-81
2022/12/17 18:05:15;;;;;;;129.70;51.60;;;;;;;-5.18;93.09;99803.42;2168457;81;21044;-79
2022/12/17 18:08:15;;;;;;;141.13;49.50;;;;;;;-5.16;93.03;99799.73;2169428;81;20973;-79
2022/12/17 18:11:15;;;;;;;119.87;46.83;;;;;;;-5.16;92.79;99805.72;2168277;81;20961;-79
2022/12/17 18:14:17;;;;;;;146.03;52.53;;;;;;;-5.15;92.92;99811.70;2168745;81;21335;-79
2022/12/17 18:17:16;;;;;;;141.43;50.63;;;;;;;-5.10;92.96;99823.19;2169332;81;21419;-80
2022/12/17 18:20:17;;;;;;;144.50;50.50;;;;;;;-5.08;92.71;99827.14;2170018;81;20921;-80
2022/12/17 18:23:17;;;;;;;140.30;50.53;;;;;;;-5.08;92.61;99829.30;2170057;81;21012;-80
2022/12/17 18:26:17;;;;;;;130.27;47.43;;;;;;;-5.04;92.72;99825.37;2168076;81;21475;-80
2022/12/17 18:29:18;;;;;;;140.33;50.93;;;;;;;-5.01;92.63;99829.09;2168754;81;20957;-81
2022/12/17 18:32:18;;;;;;;125.10;47.10;;;;;;;-4.96;92.59;99835.85;2171139;81;20985;-80
2022/12/17 18:35:19;;;;;;;113.50;44.53;;;;;;;-4.96;92.53;99834.58;2170497;81;20945;-81
2022/12/17 18:38:19;;;;;;;120.57;45.43;;;;;;;-4.98;92.63;99837.38;2171904;81;21285;-82
2022/12/17 18:44:39;;;;;;;137.80;50.83;;;;;;;-5.00;92.78;99847.42;2171106;82;21389;-82
2022/12/17 18:47:41;;;;;;;137.03;52.17;;;;;;;-5.00;92.68;99851.23;2170164;81;20961;-83
2022/12/17 18:50:39;;;;;;;123.63;48.93;;;;;;;-4.95;92.84;99858.02;2171363;81;20921;-83
2022/12/17 18:53:40;;;;;;;114.63;46.33;;;;;;;-4.96;93.00;99866.41;2171284;81;20914;-83
2022/12/17 18:56:40;;;;;;;105.50;42.47;;;;;;;-4.95;93.21;99869.47;2170700;81;21573;-83
2022/12/17 18:59:41;;;;;;;103.57;39.40;;;;;;;-4.96;93.49;99875.32;2172695;81;20993;-82
2022/12/17 19:02:41;;;;;;;141.07;49.53;;;;;;;-4.96;93.41;99879.14;2172959;81;21007;-83
2022/12/17 19:05:41;;;;;;;142.03;50.50;;;;;;;-4.93;93.37;99878.14;2171660;81;21359;-81
2022/12/17 19:08:42;;;;;;;115.17;42.67;;;;;;;-4.91;93.49;99886.80;2170398;81;20893;-81
2022/12/17 19:11:42;;;;;;;121.50;45.40;;;;;;;-4.90;93.59;99874.59;2170551;81;20964;-83
2022/12/17 19:14:43;;;;;;;132.30;46.63;;;;;;;-4.85;93.65;99884.42;2170642;81;20940;-82
2022/12/17 19:17:43;;;;;;;125.00;46.43;;;;;;;-4.85;93.42;99881.88;2172665;81;20961;-84
2022/12/17 19:20:43;;;;;;;118.17;46.43;;;;;;;-4.81;93.32;99888.13;2170032;81;20961;-82
2022/12/17 19:23:44;;;;;;;118.50;47.07;;;;;;;-4.78;93.17;99893.49;2170925;81;20969;-81
2022/12/17 19:26:44;;;;;;;102.13;42.97;;;;;;;-4.76;93.05;99902.16;2171444;81;20976;-82
2022/12/17 19:29:45;;;;;;;99.00;42.50;;;;;;;-4.76;92.73;99901.27;2170776;81;21332;-83
2022/12/17 19:32:45;;;;;;;102.93;41.67;;;;;;;-4.78;92.62;99917.69;2171378;81;20929;-83
2022/12/17 19:35:46;;;;;;;97.37;39.80;;;;;;;-4.81;92.62;99919.97;2170599;81;20957;-82
2022/12/17 19:38:46;;;;;;;104.10;40.67;;;;;;;-4.86;92.56;99917.39;2170405;81;20878;-81
2022/12/17 19:41:46;;;;;;;96.97;40.13;;;;;;;-4.88;92.64;99922.73;2170508;81;20941;-82
2022/12/17 19:44:47;;;;;;;101.43;44.57;;;;;;;-4.92;92.69;99923.22;2172381;82;21008;-82
2022/12/17 19:47:47;;;;;;;103.40;44.77;;;;;;;-4.92;92.74;99933.02;2170815;81;21320;-82
2022/12/17 19:50:47;;;;;;;131.67;52.40;;;;;;;-4.94;92.50;99936.19;2169919;81;20913;-81
2022/12/17 19:53:48;;;;;;;127.93;51.80;;;;;;;-4.98;92.42;99951.58;2171088;81;20918;-82
2022/12/17 19:56:48;;;;;;;91.00;40.67;;;;;;;-5.04;92.50;99953.95;2170386;81;20996;-81
2022/12/17 19:59:49;;;;;;;92.00;36.13;;;;;;;-5.08;92.43;99960.80;2170610;82;21316;-82
2022/12/17 20:02:49;;;;;;;86.03;38.30;;;;;;;-5.15;92.55;99961.89;2171501;81;20921;-81
2022/12/17 20:05:50;;;;;;;78.37;34.97;;;;;;;-5.17;92.45;99969.39;2172068;81;20993;-81
2022/12/17 20:08:50;;;;;;;84.90;37.47;;;;;;;-5.25;92.42;99975.41;2172658;81;21285;-79
2022/12/17 20:11:51;;;;;;;92.40;38.13;;;;;;;-5.34;92.65;99979.66;2171028;82;20982;-81
2022/12/17 20:14:51;;;;;;;84.63;37.90;;;;;;;-5.42;92.48;99991.16;2170988;81;20956;-80
2022/12/17 20:17:51;;;;;;;97.20;40.90;;;;;;;-5.53;92.88;99995.27;2170068;81;21400;-81
2022/12/17 20:20:52;;;;;;;87.07;36.53;;;;;;;-5.59;93.20;99996.86;2169915;81;20937;-82
2022/12/17 20:23:52;;;;;;;86.57;37.07;;;;;;;-5.61;93.42;100007.65;2171154;81;20965;-82
2022/12/17 20:26:53;;;;;;;85.83;36.60;;;;;;;-5.63;93.63;100004.96;2170707;81;21012;-83
2022/12/17 20:29:53;;;;;;;110.47;40.10;;;;;;;-5.67;93.99;100007.97;2171133;81;20970;-82
2022/12/17 20:32:53;;;;;;;117.90;40.23;;;;;;;-5.70;94.20;100011.50;2171062;81;21340;-82
2022/12/17 20:35:54;;;;;;;91.47;36.43;;;;;;;-5.66;94.31;100016.50;2170069;82;20933;-82
2022/12/17 20:38:54;;;;;;;92.50;34.90;;;;;;;-5.62;94.26;100026.20;2170064;81;20989;-81
2022/12/17 20:41:55;;;;;;;84.53;37.10;;;;;;;-5.64;94.21;100027.34;2171008;81;20980;-81
2022/12/17 20:44:55;;;;;;;79.97;32.93;;;;;;;-5.65;94.34;100029.73;2170971;81;20961;-82
2022/12/17 20:47:56;;;;;;;88.43;36.37;;;;;;;-5.65;94.22;100030.63;2171145;81;20980;-82
2022/12/17 20:50:56;;;;;;;92.00;35.17;;;;;;;-5.63;94.51;100040.95;2171135;81;20945;-82
2022/12/17 20:53:56;;;;;;;89.07;34.27;;;;;;;-5.61;94.42;100045.80;2170449;81;20941;-82
2022/12/17 20:56:57;;;;;;;81.13;32.63;;;;;;;-5.57;94.37;100054.24;2170804;81;21075;-82
2022/12/17 20:59:57;;;;;;;82.57;33.93;;;;;;;-5.56;94.21;100058.58;2171045;81;20992;-82
2022/12/17 21:02:57;;;;;;;70.27;30.97;;;;;;;-5.51;94.22;100071.36;2170250;81;20937;-82
2022/12/17 21:05:58;;;;;;;72.40;29.03;;;;;;;-5.56;94.39;100076.02;2170729;81;20976;-81
2022/12/17 21:08:58;;;;;;;87.20;33.57;;;;;;;-5.59;94.93;100085.00;2171082;81;21317;-81
2022/12/17 21:11:59;;;;;;;86.07;34.17;;;;;;;-5.59;95.01;100086.27;2170142;81;20906;-80
2022/12/17 21:14:59;;;;;;;68.27;28.60;;;;;;;-5.59;95.06;100095.18;2170096;81;20997;-80
2022/12/17 21:17:59;;;;;;;91.43;36.17;;;;;;;-5.57;95.17;100094.57;2170862;81;21289;-80
2022/12/17 21:21:00;;;;;;;108.03;41.67;;;;;;;-5.53;95.27;100096.66;2170900;81;20969;-81
2022/12/17 21:24:01;;;;;;;97.20;34.77;;;;;;;-5.50;95.05;100090.58;2170203;81;20926;-81
2022/12/17 21:27:01;;;;;;;99.50;34.60;;;;;;;-5.48;95.29;100091.62;2169988;81;21035;-81
2022/12/17 21:30:01;;;;;;;91.23;31.97;;;;;;;-5.48;95.49;100098.36;2170167;81;21343;-80
2022/12/17 21:33:02;;;;;;;86.47;33.23;;;;;;;-5.49;95.45;100091.48;2169939;81;20944;-81
2022/12/17 21:36:02;;;;;;;78.27;30.63;;;;;;;-5.48;95.72;100090.72;2170185;81;20956;-82
2022/12/17 21:39:02;;;;;;;71.60;27.17;;;;;;;-5.46;95.52;100103.21;2171042;81;20933;-81
2022/12/17 21:45:22;;;;;;;82.10;30.87;;;;;;;-5.39;95.40;100104.31;2172055;82;21016;-82
2022/12/17 21:48:22;;;;;;;69.13;29.67;;;;;;;-5.37;95.47;100109.16;2171063;81;20989;-82
2022/12/17 21:51:23;;;;;;;70.07;27.80;;;;;;;-5.32;95.26;100111.77;2172303;81;20921;-80
2022/12/17 21:54:23;;;;;;;71.00;28.07;;;;;;;-5.27;95.17;100115.63;2171052;81;20984;-80
2022/12/17 21:57:24;;;;;;;67.97;27.57;;;;;;;-5.22;95.17;100117.33;2171564;81;21051;-80
2022/12/17 22:00:24;;;;;;;65.03;26.23;;;;;;;-5.21;94.93;100123.84;2173053;81;20933;-80
2022/12/17 22:03:24;;;;;;;59.77;25.83;;;;;;;-5.23;94.80;100129.54;2170799;81;21352;-80
2022/12/17 22:06:25;;;;;;;66.93;27.97;;;;;;;-5.22;94.85;100124.59;2170345;81;20995;-80
2022/12/17 22:09:25;;;;;;;56.50;24.80;;;;;;;-5.23;94.83;100136.80;2171740;81;20933;-81
2022/12/17 22:15:44;;;;;;;58.43;25.17;;;;;;;-5.29;94.61;100151.50;2170297;82;20953;-81
2022/12/17 22:18:45;;;;;;;58.83;25.57;;;;;;;-5.31;94.29;100149.56;2171377;81;20920;-82
2022/12/17 22:21:46;;;;;;;60.07;26.57;;;;;;;-5.33;94.27;100143.05;2170979;81;20937;-81
2022/12/17 22:24:45;;;;;;;54.60;25.53;;;;;;;-5.33;94.06;100154.51;2171054;81;20929;-81
2022/12/17 22:27:46;;;;;;;68.83;28.00;;;;;;;-5.32;94.32;100155.03;2169740;81;20988;-81
2022/12/17 22:34:05;;;;;;;62.70;28.97;;;;;;;-5.28;94.77;100160.92;2171070;82;20930;-81
2022/12/17 22:37:06;;;;;;;69.10;28.73;;;;;;;-5.28;94.71;100162.20;2170077;81;20960;-81
2022/12/17 22:40:06;;;;;;;69.43;29.63;;;;;;;-5.28;94.72;100172.75;2171975;81;20953;-81
2022/12/17 22:46:25;;;;;;;61.03;27.60;;;;;;;-5.24;94.66;100178.66;2171216;82;20961;-81
2022/12/17 22:49:26;;;;;;;58.23;26.43;;;;;;;-5.23;94.26;100180.45;2172966;81;20930;-82
2022/12/17 22:52:26;;;;;;;67.90;31.97;;;;;;;-5.24;93.86;100179.55;2170239;81;20929;-82
2022/12/17 22:55:27;;;;;;;54.17;24.77;;;;;;;-5.24;93.86;100179.55;2170057;81;21348;-81
2022/12/17 22:58:27;;;;;;;60.83;26.60;;;;;;;-5.24;93.67;100178.28;2172437;81;21032;-82
2022/12/17 23:01:27;;;;;;;56.60;26.73;;;;;;;-5.24;93.59;100185.92;2173270;81;20929;-83
2022/12/17 23:04:28;;;;;;;60.97;29.67;;;;;;;-5.22;93.46;100183.52;2173151;81;21301;-82
2022/12/17 23:07:28;;;;;;;54.50;24.87;;;;;;;-5.18;93.44;100194.55;2172997;81;21008;-82
2022/12/17 23:10:28;;;;;;;57.47;25.50;;;;;;;-5.14;93.22;100196.63;2173256;81;20917;-82
2022/12/17 23:13:29;;;;;;;53.60;24.13;;;;;;;-5.11;92.71;100202.38;2172913;81;21293;-82
2022/12/17 23:16:29;;;;;;;54.33;25.53;;;;;;;-5.14;92.79;100198.80;2172949;81;20973;-82
2022/12/17 23:19:30;;;;;;;52.90;25.20;;;;;;;-5.12;92.50;100208.23;2173247;81;20961;-81
2022/12/17 23:22:30;;;;;;;49.33;23.73;;;;;;;-5.14;92.57;100201.34;2173203;81;20917;-80
2022/12/17 23:25:31;;;;;;;56.30;23.03;;;;;;;-5.10;92.49;100206.72;2173131;81;21416;-81
2022/12/17 23:28:31;;;;;;;55.00;24.43;;;;;;;-5.13;92.31;100208.59;2173194;81;21008;-81
2022/12/17 23:31:31;;;;;;;52.93;24.63;;;;;;;-5.13;92.18;100217.52;2173250;81;20985;-80
2022/12/17 23:34:32;;;;;;;47.50;23.80;;;;;;;-5.12;92.21;100222.23;2173019;81;20940;-82
2022/12/17 23:37:32;;;;;;;48.47;22.77;;;;;;;-5.12;91.94;100220.95;2172931;81;20957;-80
2022/12/17 23:40:33;;;;;;;48.13;23.57;;;;;;;-5.14;91.92;100228.07;2172928;82;20980;-80
2022/12/17 23:43:33;;;;;;;48.40;22.67;;;;;;;-5.11;92.04;100232.55;2173037;81;21344;-80
2022/12/17 23:46:33;;;;;;;53.90;24.03;;;;;;;-5.08;91.60;100235.77;2172962;81;20957;-81
2022/12/17 23:49:34;;;;;;;46.57;21.13;;;;;;;-5.07;91.59;100238.84;2173222;81;20973;-80
2022/12/17 23:52:34;;;;;;;46.73;22.03;;;;;;;-5.07;91.69;100238.84;2172672;81;21355;-81
2022/12/17 23:55:35;;;;;;;46.73;21.33;;;;;;;-5.03;91.70;100240.92;2173142;81;20933;-81
2022/12/17 23:58:35;;;;;;;49.17;22.97;;;;;;;-4.99;90.90;100244.27;2172828;81;21011;-81
